TimeMST,TemperatureF,Dew PointF,Humidity,Sea Level PressureIn,VisibilityMPH,Wind Direction,Wind SpeedMPH,Gust SpeedMPH,PrecipitationIn,Events,Conditions,WindDirDegrees,DateUTC
12:16 AM,-5.8,-9.4,84,30.17,1.8,Calm,Calm,-,N/A,,Scattered Clouds,0,2011-12-09 07:16:00
12:26 AM,-4.0,-7.6,85,30.17,2.0,Calm,Calm,-,N/A,,Mostly Cloudy,0,2011-12-09 07:26:00
12:33 AM,-5.8,-9.4,84,30.18,3.0,Calm,Calm,-,N/A,,Mostly Cloudy,0,2011-12-09 07:33:00
12:35 AM,-5.8,-9.4,84,30.17,1.5,Calm,Calm,-,N/A,,Mostly Cloudy,0,2011-12-09 07:35:00
12:43 AM,-4.0,-7.6,85,30.17,0.5,Calm,Calm,-,N/A,Fog,Light Freezing Fog,0,2011-12-09 07:43:00
12:52 AM,-4.0,-6.0,91,30.43,0.2,Calm,Calm,-,N/A,Fog,Light Freezing Fog,0,2011-12-09 07:52:00
1:21 AM,-5.8,-7.6,92,30.18,1.2,Calm,Calm,-,N/A,,Scattered Clouds,0,2011-12-09 08:21:00
1:24 AM,-5.8,-9.4,84,30.18,3.0,Calm,Calm,-,N/A,,Scattered Clouds,0,2011-12-09 08:24:00
1:52 AM,-6.0,-9.9,83,30.42,3.0,Calm,Calm,-,N/A,,Scattered Clouds,0,2011-12-09 08:52:00
2:06 AM,-5.8,-9.4,84,30.18,3.0,Calm,Calm,-,N/A,,Haze,0,2011-12-09 09:06:00
2:23 AM,-5.8,-11.2,77,30.17,1.8,Calm,Calm,-,N/A,,Haze,0,2011-12-09 09:23:00
2:37 AM,-5.8,-9.4,84,30.18,3.0,Calm,Calm,-,N/A,,Overcast,0,2011-12-09 09:37:00
2:52 AM,-6.0,-11.0,79,30.41,4.0,WSW,3.5,-,N/A,,Haze,240,2011-12-09 09:52:00
3:06 AM,-5.8,-9.4,84,30.18,1.8,Calm,Calm,-,N/A,,Mostly Cloudy,0,2011-12-09 10:06:00
3:17 AM,-5.8,-9.4,84,30.17,0.5,WNW,3.5,-,N/A,Fog,Light Freezing Fog,290,2011-12-09 10:17:00
3:28 AM,-5.8,-9.4,84,30.17,2.0,Calm,Calm,-,N/A,,Overcast,0,2011-12-09 10:28:00
3:36 AM,-5.8,-9.4,84,30.17,6.0,Calm,Calm,-,N/A,,Overcast,0,2011-12-09 10:36:00
3:52 AM,-5.1,-9.9,80,30.42,6.0,Calm,Calm,-,N/A,,Haze,0,2011-12-09 10:52:00
4:25 AM,-4.0,-9.4,78,30.18,1.8,Calm,Calm,-,N/A,,Haze,0,2011-12-09 11:25:00
4:34 AM,-2.2,-5.8,85,30.19,0.5,Calm,Calm,-,N/A,Fog,Light Freezing Fog,0,2011-12-09 11:34:00
4:52 AM,-2.9,-8.0,79,30.45,0.2,Calm,Calm,-,N/A,,Haze,0,2011-12-09 11:52:00
5:52 AM,-5.1,-7.1,91,30.52,1.2,Calm,Calm,-,N/A,,Overcast,0,2011-12-09 12:52:00
6:01 AM,-5.8,-9.4,84,30.21,3.0,Calm,Calm,-,N/A,,Haze,0,2011-12-09 13:01:00
6:12 AM,-5.8,-9.4,84,30.21,1.8,WSW,3.5,-,N/A,,Overcast,240,2011-12-09 13:12:00
6:38 AM,-4.0,-9.4,78,30.24,3.0,ENE,6.9,-,N/A,,Haze,60,2011-12-09 13:38:00
6:44 AM,-4.0,-9.4,78,30.23,1.8,Calm,Calm,-,N/A,,Haze,0,2011-12-09 13:44:00
6:52 AM,-5.1,-9.0,83,30.59,2.0,NE,5.8,-,N/A,,Overcast,40,2011-12-09 13:52:00
7:18 AM,-5.8,-7.6,92,30.25,1.0,Calm,Calm,-,N/A,,Overcast,0,2011-12-09 14:18:00
7:25 AM,-5.8,-9.4,84,30.26,0.5,Calm,Calm,-,N/A,Fog,Light Freezing Fog,0,2011-12-09 14:25:00
7:52 AM,-4.0,-8.0,83,30.60,0.5,Calm,Calm,-,N/A,Fog,Light Freezing Fog,0,2011-12-09 14:52:00
8:17 AM,-2.2,-5.8,85,30.27,1.0,Calm,Calm,-,N/A,,Overcast,0,2011-12-09 15:17:00
8:40 AM,-0.4,-2.2,92,30.28,3.0,Calm,Calm,-,N/A,,Overcast,0,2011-12-09 15:40:00
8:52 AM,1.0,-2.9,83,30.62,2.5,Calm,Calm,-,N/A,,Overcast,0,2011-12-09 15:52:00
9:17 AM,3.2,1.4,92,30.30,3.0,Calm,Calm,-,N/A,,Scattered Clouds,0,2011-12-09 16:17:00
9:52 AM,9.0,6.1,88,30.62,4.0,Calm,Calm,-,N/A,,Partly Cloudy,0,2011-12-09 16:52:00
10:52 AM,16.0,9.0,74,30.59,10.0,Calm,Calm,-,N/A,,Clear,0,2011-12-09 17:52:00
11:52 AM,24.1,10.0,55,30.53,10.0,Calm,Calm,-,N/A,,Clear,0,2011-12-09 18:52:00
12:52 PM,27.0,12.0,53,30.49,10.0,West,3.5,-,N/A,,Clear,260,2011-12-09 19:52:00
1:52 PM,28.0,10.9,49,30.49,10.0,Calm,Calm,-,N/A,,Clear,0,2011-12-09 20:52:00
2:52 PM,30.0,12.0,47,30.48,10.0,SSW,5.8,-,N/A,,Clear,210,2011-12-09 21:52:00
3:52 PM,28.0,12.9,53,30.49,10.0,West,3.5,-,N/A,,Clear,260,2011-12-09 22:52:00
4:52 PM,17.1,6.1,62,30.56,10.0,North,6.9,-,N/A,,Clear,10,2011-12-09 23:52:00
5:52 PM,12.0,3.9,70,30.61,10.0,North,5.8,-,N/A,,Clear,350,2011-12-10 00:52:00
6:52 PM,8.1,3.0,80,30.66,10.0,NNW,4.6,-,N/A,,Clear,330,2011-12-10 01:52:00
7:52 PM,3.0,-0.9,84,30.72,10.0,West,6.9,-,N/A,,Clear,280,2011-12-10 02:52:00
8:52 PM,1.0,-4.0,79,30.71,10.0,WNW,5.8,-,N/A,,Clear,290,2011-12-10 03:52:00
9:52 PM,1.0,-4.0,79,30.66,10.0,West,5.8,-,N/A,,Clear,270,2011-12-10 04:52:00
10:52 PM,-0.9,-6.0,79,30.64,10.0,Calm,Calm,-,N/A,,Clear,0,2011-12-10 05:52:00
11:52 PM,-2.0,-7.1,79,30.61,10.0,South,3.5,-,N/A,,Clear,180,2011-12-10 06:52:00